Time;durP1;ratioP1;P1;durP2;ratioP2;P2;SDS_P1;SDS_P2;PMS_P1;PMS_P2;Temp;Humidity;BMP_temperature;BMP_pressure;BME280_temperature;BME280_humidity;BME280_pressure;Samples;Min_cycle;Max_cycle;Signal;HPM_P1;HPM_P2
2022/04/19 00:00:13;;;;;;;;;;;;;;;6.70;72.62;99478.00;4967415;28;20045;-84
2022/04/19 00:02:38;;;;;;;;;;;;;;;6.76;72.26;99481.47;4968457;28;20375;-84
2022/04/19 00:05:04;;;;;;;;;;;;;;;6.69;72.74;99476.22;4968798;28;19921;-84
2022/04/19 00:07:29;;;;;;;;;;;;;;;6.57;73.11;99469.28;4968670;28;19922;-84
2022/04/19 00:09:54;;;;;;;;;;;;;;;6.73;72.78;99465.75;4968042;28;19925;-85
2022/04/19 00:12:20;;;;;;;;;;;;;;;6.75;72.96;99470.97;4968546;28;19929;-85
2022/04/19 00:14:47;;;;;;;;;;;;;;;6.70;72.73;99473.59;4968834;28;20511;-84
2022/04/19 00:17:12;;;;;;;;;;;;;;;6.79;72.91;99475.34;4968977;28;20380;-84
2022/04/19 00:19:38;;;;;;;;;;;;;;;6.80;72.86;99474.47;4967877;28;20013;-84
2022/04/19 00:22:03;;;;;;;;;;;;;;;6.85;72.43;99467.47;4968356;28;20008;-84
2022/04/19 00:24:29;;;;;;;;;;;;;;;6.86;72.58;99473.56;4968372;28;19914;-84
2022/04/19 00:26:55;;;;;;;;;;;;;;;6.90;72.22;99473.53;4968281;28;19921;-84
2022/04/19 00:29:20;;;;;;;;;;;;;;;6.95;72.19;99469.19;4967056;28;19941;-84
2022/04/19 00:31:45;;;;;;;;;;;;;;;6.80;72.04;99464.84;4968031;28;19925;-87
2022/04/19 00:34:11;;;;;;;;;;;;;;;6.87;71.88;99464.81;4967440;28;19921;-87
2022/04/19 00:36:37;;;;;;;;;;;;;;;6.85;71.87;99467.47;4968648;28;19937;-86
2022/04/19 00:39:03;;;;;;;;;;;;;;;6.84;71.53;99463.09;4968955;28;19972;-87
2022/04/19 00:41:28;;;;;;;;;;;;;;;6.81;71.54;99471.84;4968077;28;20359;-87
2022/04/19 00:43:54;;;;;;;;;;;;;;;6.82;71.46;99477.97;4967725;28;19922;-87
2022/04/19 00:46:20;;;;;;;;;;;;;;;6.77;72.08;99477.09;4968149;28;20367;-88
2022/04/19 00:48:45;;;;;;;;;;;;;;;6.80;72.06;99467.47;4967656;28;19929;-88
2022/04/19 00:51:11;;;;;;;;;;;;;;;6.76;71.93;99468.34;4967936;28;20013;-88
2022/04/19 00:53:37;;;;;;;;;;;;;;;6.77;71.97;99464.88;4966247;28;19948;-88
2022/04/19 00:56:03;;;;;;;;;;;;;;;6.87;72.03;99476.19;4961808;28;19948;-87
2022/04/19 00:58:28;;;;;;;;;;;;;;;6.74;72.24;99464.88;4962923;28;21109;-88
2022/04/19 01:00:54;;;;;;;;;;;;;;;6.78;71.77;99460.47;4968300;28;19964;-87
2022/04/19 01:03:21;;;;;;;;;;;;;;;6.68;71.75;99453.53;4968379;28;19957;-88
2022/04/19 01:05:47;;;;;;;;;;;;;;;6.68;71.37;99457.03;4969252;28;19914;-88
2022/04/19 01:08:13;;;;;;;;;;;;;;;6.62;71.83;99459.66;4970975;28;19953;-88
2022/04/19 01:10:38;;;;;;;;;;;;;;;6.44;72.50;99452.72;4969171;28;20408;-85
2022/04/19 01:13:19;;;;;;;;;;;;;;;6.62;72.52;99454.41;4970448;28;19929;-85
2022/04/19 01:15:47;;;;;;;;;;;;;;;6.55;72.78;99460.53;4971616;28;19965;-86
2022/04/19 01:18:23;;;;;;;;;;;;;;;6.39;73.46;99455.34;4970835;28;19929;-84
2022/04/19 01:20:49;;;;;;;;;;;;;;;6.24;73.69;99460.59;4970706;28;19922;-84
2022/04/19 01:23:15;;;;;;;;;;;;;;;6.42;73.18;99459.72;4971528;28;20443;-84
2022/04/19 01:25:41;;;;;;;;;;;;;;;6.52;73.10;99463.16;4970276;28;19918;-84
2022/04/19 01:28:06;;;;;;;;;;;;;;;6.50;73.27;99450.06;4971045;28;19981;-85
2022/04/19 01:30:33;;;;;;;;;;;;;;;6.46;73.39;99458.84;4969742;28;19988;-84
2022/04/19 01:32:59;;;;;;;;;;;;;;;6.37;73.50;99459.72;4971259;28;20415;-84
2022/04/19 01:35:24;;;;;;;;;;;;;;;6.39;73.54;99457.97;4971188;28;19968;-85
2022/04/19 01:37:51;;;;;;;;;;;;;;;6.41;73.98;99460.56;4970654;28;19930;-85
2022/04/19 01:40:16;;;;;;;;;;;;;;;6.36;74.00;99454.47;4970363;28;19926;-85
2022/04/19 01:42:44;;;;;;;;;;;;;;;6.36;73.71;99452.72;4971060;28;19929;-85
2022/04/19 01:45:10;;;;;;;;;;;;;;;6.53;73.50;99452.69;4970940;28;19941;-84
2022/04/19 01:47:35;;;;;;;;;;;;;;;6.44;73.61;99445.75;4970595;28;19918;-84
2022/04/19 01:50:00;;;;;;;;;;;;;;;6.44;73.50;99452.72;4970703;28;19918;-84
2022/04/19 01:52:26;;;;;;;;;;;;;;;6.48;73.57;99453.59;4951677;28;20319;-85
2022/04/19 01:54:51;;;;;;;;;;;;;;;6.53;73.21;99450.06;4951778;28;19991;-85
2022/04/19 01:57:17;;;;;;;;;;;;;;;6.52;73.53;99448.34;4951505;28;19926;-85
2022/04/19 01:59:42;;;;;;;;;;;;;;;6.58;73.10;99443.09;4951971;28;19910;-86
2022/04/19 02:02:08;;;;;;;;;;;;;;;6.57;73.63;99448.34;4970629;28;19961;-85
2022/04/19 02:04:34;;;;;;;;;;;;;;;6.53;73.56;99451.81;4970455;28;19914;-85
2022/04/19 02:06:59;;;;;;;;;;;;;;;6.52;73.75;99443.09;4969062;28;20470;-86
2022/04/19 02:09:24;;;;;;;;;;;;;;;6.55;73.79;99443.09;4970426;28;19924;-85
2022/04/19 02:11:50;;;;;;;;;;;;;;;6.68;73.40;99448.31;4970092;28;19925;-85
2022/04/19 02:14:15;;;;;;;;;;;;;;;6.54;73.21;99440.47;4970038;28;19925;-84
2022/04/19 02:16:41;;;;;;;;;;;;;;;6.57;73.08;99437.84;4969920;28;20356;-85
2022/04/19 02:19:06;;;;;;;;;;;;;;;6.57;73.18;99438.72;4969870;28;19918;-84
2022/04/19 02:21:32;;;;;;;;;;;;;;;6.58;72.52;99436.94;4968798;28;19929;-84
2022/04/19 02:23:57;;;;;;;;;;;;;;;6.63;72.54;99427.34;4969634;28;19981;-85
2022/04/19 02:26:24;;;;;;;;;;;;;;;6.65;72.81;99432.59;4969102;28;19918;-84
2022/04/19 02:28:49;;;;;;;;;;;;;;;6.75;72.66;99435.16;4968833;28;19918;-85
2022/04/19 02:31:14;;;;;;;;;;;;;;;6.62;72.72;99438.69;4969833;28;19921;-85
2022/04/19 02:33:40;;;;;;;;;;;;;;;6.56;72.47;99436.94;4968867;28;20427;-85
2022/04/19 02:36:05;;;;;;;;;;;;;;;6.56;72.77;99442.19;4969805;28;19918;-86
2022/04/19 02:38:30;;;;;;;;;;;;;;;6.74;72.70;99437.78;4967975;28;19926;-86
2022/04/19 02:40:56;;;;;;;;;;;;;;;6.71;72.98;99435.19;4969596;28;19925;-85
2022/04/19 02:43:21;;;;;;;;;;;;;;;6.78;72.91;99431.63;4968615;28;19926;-85
2022/04/19 02:45:46;;;;;;;;;;;;;;;6.86;72.63;99424.63;4969582;28;19914;-86
2022/04/19 02:48:12;;;;;;;;;;;;;;;6.89;72.49;99436.84;4968468;28;19922;-85
2022/04/19 02:50:41;;;;;;;;;;;;;;;6.84;72.57;99434.25;4970147;28;19951;-85
2022/04/19 02:53:07;;;;;;;;;;;;;;;6.81;72.94;99435.16;4967847;28;19918;-85
2022/04/19 02:55:32;;;;;;;;;;;;;;;6.67;73.32;99430.81;4969153;28;19922;-85
2022/04/19 02:57:58;;;;;;;;;;;;;;;6.70;72.61;99439.53;4970089;28;19921;-85
2022/04/19 03:00:23;;;;;;;;;;;;;;;6.71;71.99;99435.19;4968051;28;19922;-85
2022/04/19 03:02:49;;;;;;;;;;;;;;;6.75;72.15;99443.03;4969343;28;19921;-84
2022/04/19 03:05:16;;;;;;;;;;;;;;;6.74;72.14;99443.91;4970024;28;19914;-86
2022/04/19 03:07:41;;;;;;;;;;;;;;;6.76;72.71;99451.75;4969092;28;19922;-89
2022/04/19 03:10:07;;;;;;;;;;;;;;;6.66;72.24;99450.03;4967767;28;19929;-91
2022/04/19 03:12:32;;;;;;;;;;;;;;;6.70;72.67;99452.63;4968819;28;19917;-90
2022/04/19 03:14:58;;;;;;;;;;;;;;;6.71;72.14;99441.28;4967441;28;19924;-85
2022/04/19 03:17:23;;;;;;;;;;;;;;;6.65;72.13;99445.69;4969273;28;19922;-86
2022/04/19 03:19:48;;;;;;;;;;;;;;;6.68;71.75;99453.53;4969676;28;19922;-86
2022/04/19 03:22:14;;;;;;;;;;;;;;;6.75;72.31;99448.28;4969037;28;19913;-86
2022/04/19 03:27:41;;;;;;;;;;;;;;;6.69;72.45;99456.16;4969608;28;19969;-87
2022/04/19 03:30:07;;;;;;;;;;;;;;;6.70;72.70;99457.88;4969384;28;19925;-87
2022/04/19 03:32:32;;;;;;;;;;;;;;;6.61;72.88;99457.91;4969611;28;20380;-88
2022/04/19 03:34:58;;;;;;;;;;;;;;;6.52;73.04;99455.31;4969874;28;19945;-88
2022/04/19 03:37:23;;;;;;;;;;;;;;;6.51;73.64;99448.34;4969365;28;19922;-89
2022/04/19 03:39:48;;;;;;;;;;;;;;;6.50;73.63;99450.06;4970499;28;19968;-89
2022/04/19 03:42:14;;;;;;;;;;;;;;;6.59;73.61;99457.06;4970244;28;19918;-88
2022/04/19 03:44:39;;;;;;;;;;;;;;;6.63;73.18;99456.19;4970582;28;19918;-88
2022/04/19 03:47:07;;;;;;;;;;;;;;;6.74;72.25;99458.75;4968671;28;19922;-91
2022/04/19 03:49:34;;;;;;;;;;;;;;;6.71;72.68;99457.00;4968701;28;20046;-86
2022/04/19 03:51:59;;;;;;;;;;;;;;;6.80;72.39;99451.75;4970064;28;19940;-87
2022/04/19 03:54:25;;;;;;;;;;;;;;;6.70;71.92;99457.03;4969076;28;19980;-88
2022/04/19 03:56:50;;;;;;;;;;;;;;;6.67;71.74;99460.50;4964720;28;20012;-88
2022/04/19 03:59:16;;;;;;;;;;;;;;;6.62;72.16;99462.28;4966846;28;19961;-87
2022/04/19 04:01:41;;;;;;;;;;;;;;;6.62;72.64;99457.03;4957658;28;20419;-86
2022/04/19 04:04:07;;;;;;;;;;;;;;;6.75;72.89;99457.88;4949417;29;19918;-87
2022/04/19 04:06:33;;;;;;;;;;;;;;;6.73;72.79;99457.00;4967245;28;19918;-87
2022/04/19 04:08:59;;;;;;;;;;;;;;;6.59;72.93;99457.91;4965671;28;19922;-88
2022/04/19 04:11:24;;;;;;;;;;;;;;;6.58;72.91;99458.81;4974512;28;20373;-83
2022/04/19 04:13:49;;;;;;;;;;;;;;;6.61;72.72;99463.16;4968429;28;19922;-86
2022/04/19 04:16:14;;;;;;;;;;;;;;;6.69;72.44;99465.75;4967401;28;20301;-87
2022/04/19 04:18:40;;;;;;;;;;;;;;;6.73;72.93;99470.97;4966348;28;20411;-85
2022/04/19 04:21:05;;;;;;;;;;;;;;;6.72;72.25;99473.59;4968144;28;19972;-88
2022/04/19 04:23:33;;;;;;;;;;;;;;;6.80;71.66;99479.72;4966681;28;19922;-86
2022/04/19 04:25:58;;;;;;;;;;;;;;;6.85;71.45;99467.47;4969022;28;19918;-86
2022/04/19 04:28:24;;;;;;;;;;;;;;;6.87;70.96;99476.19;4969286;28;20446;-86
2022/04/19 04:30:49;;;;;;;;;;;;;;;6.94;71.27;99480.53;4967776;28;19929;-88
2022/04/19 04:33:14;;;;;;;;;;;;;;;7.10;70.61;99475.22;4968636;28;19918;-87
2022/04/19 04:35:40;;;;;;;;;;;;;;;7.11;70.16;99482.22;4967404;28;19917;-85
2022/04/19 04:38:05;;;;;;;;;;;;;;;7.08;69.93;99475.22;4950131;28;20310;-86
2022/04/19 04:40:31;;;;;;;;;;;;;;;7.09;69.27;99486.59;4969232;28;20308;-84
2022/04/19 04:42:56;;;;;;;;;;;;;;;7.02;70.03;99491.00;4972322;28;20348;-86
2022/04/19 04:45:21;;;;;;;;;;;;;;;7.12;69.85;99495.34;4971909;28;20412;-85
2022/04/19 04:50:31;;;;;;;;;;;;;;;6.99;70.44;99502.34;4972742;28;19941;-85
2022/04/19 04:52:56;;;;;;;;;;;;;;;6.98;70.60;99499.75;4971800;28;20392;-86
2022/04/19 04:55:23;;;;;;;;;;;;;;;7.01;70.88;99499.72;4971963;28;19921;-86
2022/04/19 04:57:48;;;;;;;;;;;;;;;7.11;70.93;99496.22;4973101;28;19972;-86
2022/04/19 05:00:14;;;;;;;;;;;;;;;7.05;70.87;99505.88;4971913;28;20404;-88
2022/04/19 05:02:39;;;;;;;;;;;;;;;7.08;71.24;99505.84;4971001;28;19988;-87
2022/04/19 05:05:05;;;;;;;;;;;;;;;7.04;70.81;99504.97;4965440;28;19945;-85
2022/04/19 05:07:30;;;;;;;;;;;;;;;6.89;71.51;99505.91;4971400;28;19922;-85
2022/04/19 05:09:57;;;;;;;;;;;;;;;7.10;71.93;99504.94;4972256;28;19925;-86
2022/04/19 05:12:22;;;;;;;;;;;;;;;7.08;71.98;99503.22;4971830;28;20091;-87
2022/04/19 05:14:47;;;;;;;;;;;;;;;7.19;72.68;99503.19;4972576;28;20432;-86
2022/04/19 05:17:13;;;;;;;;;;;;;;;7.16;72.35;99506.69;4973902;28;20388;-84
2022/04/19 05:19:38;;;;;;;;;;;;;;;7.08;72.91;99511.09;4966799;28;19918;-86
2022/04/19 05:22:03;;;;;;;;;;;;;;;7.16;72.37;99509.31;4972033;28;19918;-87
2022/04/19 05:24:29;;;;;;;;;;;;;;;7.14;71.73;99511.06;4971613;28;19985;-87
2022/04/19 05:26:54;;;;;;;;;;;;;;;7.19;71.94;99508.44;4980861;28;20001;-87
2022/04/19 05:29:19;;;;;;;;;;;;;;;7.35;71.68;99508.34;4997627;28;19918;-87
2022/04/19 05:31:48;;;;;;;;;;;;;;;7.27;72.25;99509.25;4996475;28;19913;-85
2022/04/19 05:34:13;;;;;;;;;;;;;;;7.10;70.85;99515.44;4994649;28;19981;-84
2022/04/19 05:36:39;;;;;;;;;;;;;;;7.17;71.21;99506.66;4969387;28;20042;-87
2022/04/19 05:39:04;;;;;;;;;;;;;;;7.39;71.01;99501.31;4970245;28;19925;-88
2022/04/19 05:41:29;;;;;;;;;;;;;;;7.44;71.36;99509.19;4968407;28;19921;-88
2022/04/19 05:43:57;;;;;;;;;;;;;;;7.48;70.71;99509.16;4970704;28;20037;-87
2022/04/19 05:46:23;;;;;;;;;;;;;;;7.46;71.97;99508.28;4971255;28;19924;-89
2022/04/19 05:48:49;;;;;;;;;;;;;;;7.46;71.39;99508.28;4971051;28;19922;-87
2022/04/19 05:51:14;;;;;;;;;;;;;;;7.52;71.15;99512.63;4959146;28;19925;-88
2022/04/19 05:53:40;;;;;;;;;;;;;;;7.59;69.94;99508.22;4968398;28;19933;-87
2022/04/19 05:56:06;;;;;;;;;;;;;;;7.65;71.05;99513.44;4970516;28;19922;-88
2022/04/19 05:58:31;;;;;;;;;;;;;;;7.58;71.31;99523.09;4969897;28;19925;-88
2022/04/19 06:00:58;;;;;;;;;;;;;;;7.75;71.08;99511.63;4971200;28;19929;-87
2022/04/19 06:06:07;;;;;;;;;;;;;;;7.41;71.16;99530.19;4950172;28;20392;-88
2022/04/19 06:08:32;;;;;;;;;;;;;;;7.16;72.19;99531.16;4949933;28;19942;-88
2022/04/19 06:10:58;;;;;;;;;;;;;;;7.08;72.32;99537.31;4965290;28;19923;-87
2022/04/19 06:13:24;;;;;;;;;;;;;;;7.20;72.00;99536.38;4970885;28;19956;-86
2022/04/19 06:15:49;;;;;;;;;;;;;;;7.26;72.02;99541.59;4970210;28;19953;-85
2022/04/19 06:18:14;;;;;;;;;;;;;;;7.26;72.33;99528.50;4970468;28;19914;-86
2022/04/19 06:20:40;;;;;;;;;;;;;;;7.17;70.83;99539.91;4970671;28;19922;-88
2022/04/19 06:23:06;;;;;;;;;;;;;;;7.01;72.23;99535.59;4970971;28;19918;-86
2022/04/19 06:25:31;;;;;;;;;;;;;;;7.32;72.10;99537.22;4967170;28;19922;-87
2022/04/19 06:27:57;;;;;;;;;;;;;;;7.57;71.28;99545.00;4969700;28;19961;-89
2022/04/19 06:30:24;;;;;;;;;;;;;;;7.67;72.17;99544.03;4969865;28;19985;-87
2022/04/19 06:32:51;;;;;;;;;;;;;;;7.70;70.95;99538.78;4970250;28;19922;-87
2022/04/19 06:35:17;;;;;;;;;;;;;;;7.10;71.08;99552.16;4970223;28;20360;-87
2022/04/19 06:37:42;;;;;;;;;;;;;;;7.11;71.50;99553.91;4970637;28;19918;-87
2022/04/19 06:40:08;;;;;;;;;;;;;;;7.02;72.14;99543.44;4969564;28;19918;-86
2022/04/19 06:42:33;;;;;;;;;;;;;;;7.05;72.34;99546.06;4970042;28;19918;-86
2022/04/19 06:44:59;;;;;;;;;;;;;;;6.93;71.10;99552.22;4970250;28;19918;-88
2022/04/19 06:47:24;;;;;;;;;;;;;;;6.99;71.65;99557.44;4969851;28;19914;-87
2022/04/19 06:49:49;;;;;;;;;;;;;;;6.53;72.77;99557.50;4969771;28;19922;-87
2022/04/19 06:52:15;;;;;;;;;;;;;;;6.78;72.72;99562.72;4970423;28;20297;-87
2022/04/19 06:54:41;;;;;;;;;;;;;;;6.98;72.44;99568.81;4968818;28;19918;-87
2022/04/19 06:57:06;;;;;;;;;;;;;;;6.85;70.02;99568.84;4969069;28;19926;-88
2022/04/19 06:59:31;;;;;;;;;;;;;;;6.50;70.47;99567.13;4969829;28;19918;-88
2022/04/19 07:01:57;;;;;;;;;;;;;;;6.51;70.53;99569.75;4969576;28;20310;-86
2022/04/19 07:04:22;;;;;;;;;;;;;;;6.56;70.27;99577.63;4967340;28;20447;-86
2022/04/19 07:06:48;;;;;;;;;;;;;;;6.45;69.49;99568.00;4969772;28;19925;-86
2022/04/19 07:09:14;;;;;;;;;;;;;;;6.94;69.96;99567.06;4968306;28;20671;-86
2022/04/19 07:11:39;;;;;;;;;;;;;;;7.37;70.04;99566.06;4969072;28;19925;-89
2022/04/19 07:14:05;;;;;;;;;;;;;;;7.24;68.88;99565.22;4969492;28;19953;-86
2022/04/19 07:16:30;;;;;;;;;;;;;;;7.23;69.74;99571.38;4969519;28;19918;-86
2022/04/19 07:18:56;;;;;;;;;;;;;;;7.71;68.11;99563.28;4969094;28;19918;-86
2022/04/19 07:26:53;;;;;;;;;;;;;;;7.85;63.14;99569.34;4949190;28;19918;-83
2022/04/19 07:29:18;;;;;;;;;;;;;;;8.18;63.24;99575.25;4969356;28;19929;-83
2022/04/19 07:31:45;;;;;;;;;;;;;;;8.17;63.09;99575.25;4967655;28;19964;-83
2022/04/19 07:34:11;;;;;;;;;;;;;;;8.13;63.48;99571.78;4968799;28;19918;-84
2022/04/19 07:36:40;;;;;;;;;;;;;;;7.74;64.11;99573.78;4969921;28;19914;-84
2022/04/19 07:39:12;;;;;;;;;;;;;;;7.87;63.25;99574.56;4968259;28;19938;-84
2022/04/19 07:41:38;;;;;;;;;;;;;;;7.85;66.46;99574.59;4970142;28;19984;-84
2022/04/19 07:44:08;;;;;;;;;;;;;;;8.23;66.14;99573.47;4969085;28;20395;-84
2022/04/19 07:46:34;;;;;;;;;;;;;;;8.20;64.59;99583.09;4967898;28;19914;-84
2022/04/19 07:49:00;;;;;;;;;;;;;;;8.39;64.73;99573.34;4969172;28;19926;-84
2022/04/19 07:51:25;;;;;;;;;;;;;;;8.41;64.17;99572.44;4968071;28;20348;-84
2022/04/19 07:53:51;;;;;;;;;;;;;;;8.22;62.79;99574.34;4969012;28;19918;-84
2022/04/19 07:56:17;;;;;;;;;;;;;;;8.52;63.03;99568.88;4968789;28;19929;-84
2022/04/19 07:58:48;;;;;;;;;;;;;;;8.35;63.07;99572.47;4969338;28;19937;-84
2022/04/19 08:01:14;;;;;;;;;;;;;;;8.72;61.94;99568.72;4968250;28;19918;-84
2022/04/19 08:03:39;;;;;;;;;;;;;;;8.75;59.46;99564.28;4969555;28;19993;-84
2022/04/19 08:06:05;;;;;;;;;;;;;;;8.85;63.01;99566.81;4968927;28;19918;-84
2022/04/19 08:08:30;;;;;;;;;;;;;;;9.11;60.34;99567.44;4969375;28;19945;-83
2022/04/19 08:10:56;;;;;;;;;;;;;;;9.26;58.05;99576.91;4968297;28;19981;-84
2022/04/19 08:13:21;;;;;;;;;;;;;;;9.58;58.20;99577.41;4969286;28;19965;-84
2022/04/19 08:15:46;;;;;;;;;;;;;;;9.43;61.42;99575.84;4970921;28;19917;-84
2022/04/19 08:18:14;;;;;;;;;;;;;;;9.18;61.27;99577.91;4971746;28;19924;-83
2022/04/19 08:20:43;;;;;;;;;;;;;;;9.50;62.15;99572.25;4973089;28;19938;-84
2022/04/19 08:23:08;;;;;;;;;;;;;;;9.58;60.80;99569.53;4973296;28;19918;-84
2022/04/19 08:25:35;;;;;;;;;;;;;;;9.07;62.43;99576.25;4972759;28;19918;-84
2022/04/19 08:28:00;;;;;;;;;;;;;;;8.72;63.25;99572.19;4970877;28;20376;-83
2022/04/19 08:30:25;;;;;;;;;;;;;;;8.34;64.58;99572.50;4972733;28;20008;-83
2022/04/19 08:32:51;;;;;;;;;;;;;;;8.23;65.43;99573.47;4973213;28;19920;-84
2022/04/19 08:35:19;;;;;;;;;;;;;;;8.18;66.95;99574.38;4971990;28;19925;-84
2022/04/19 08:37:45;;;;;;;;;;;;;;;8.11;65.79;99575.28;4972215;28;19918;-83
2022/04/19 08:40:11;;;;;;;;;;;;;;;8.24;64.69;99569.06;4972193;28;19972;-85
2022/04/19 08:42:38;;;;;;;;;;;;;;;8.34;64.89;99567.25;4972371;28;19965;-82
2022/04/19 08:45:04;;;;;;;;;;;;;;;8.79;65.35;99567.78;4971901;28;20363;-84
2022/04/19 08:47:37;;;;;;;;;;;;;;;9.07;61.08;99570.97;4971896;28;20309;-87
2022/04/19 08:50:03;;;;;;;;;;;;;;;9.22;62.07;99566.44;4970716;28;19918;-85
2022/04/19 08:52:29;;;;;;;;;;;;;;;9.56;60.69;99574.81;4971941;28;19920;-85
2022/04/19 08:57:39;;;;;;;;;;;;;;;9.81;59.67;99569.22;4971411;28;19986;-87
2022/04/19 09:00:05;;;;;;;;;;;;;;;9.94;57.74;99569.91;4971728;28;19943;-86
2022/04/19 09:02:32;;;;;;;;;;;;;;;10.23;61.31;99556.28;4971823;28;20411;-86
2022/04/19 09:05:13;;;;;;;;;;;;;;;9.89;59.32;99563.84;4972066;28;19920;-88
2022/04/19 09:07:39;;;;;;;;;;;;;;;9.97;57.99;99559.31;4971601;28;19980;-86
2022/04/19 09:10:14;;;;;;;;;;;;;;;11.06;58.56;99559.25;4970582;28;19918;-86
2022/04/19 09:12:54;;;;;;;;;;;;;;;10.82;55.87;99556.19;4971337;28;19918;-86
2022/04/19 09:15:20;;;;;;;;;;;;;;;10.52;54.70;99555.84;4971411;28;19924;-87
2022/04/19 09:17:47;;;;;;;;;;;;;;;10.85;55.50;99550.84;4970937;28;19914;-87
2022/04/19 09:20:18;;;;;;;;;;;;;;;11.17;54.66;99559.03;4971771;28;19921;-86
2022/04/19 09:22:50;;;;;;;;;;;;;;;10.26;55.61;99555.38;4971090;28;19921;-86
2022/04/19 09:25:20;;;;;;;;;;;;;;;10.22;55.68;99551.91;4971884;28;19945;-87
2022/04/19 09:27:46;;;;;;;;;;;;;;;10.47;55.23;99552.41;4969874;28;19922;-87
2022/04/19 09:30:24;;;;;;;;;;;;;;;10.99;57.42;99558.50;4971471;28;19918;-88
2022/04/19 09:33:04;;;;;;;;;;;;;;;11.80;55.44;99549.81;4970721;28;19918;-87
2022/04/19 09:35:30;;;;;;;;;;;;;;;12.33;53.17;99554.81;4971348;28;19980;-86
2022/04/19 09:37:55;;;;;;;;;;;;;;;12.32;53.21;99545.97;4970374;28;19918;-87
2022/04/19 09:40:27;;;;;;;;;;;;;;;12.36;53.70;99541.50;4970933;28;19920;-88
2022/04/19 09:42:54;;;;;;;;;;;;;;;12.23;53.61;99540.91;4970988;28;20000;-86
2022/04/19 09:45:20;;;;;;;;;;;;;;;12.28;52.02;99543.44;4971005;28;19921;-87
2022/04/19 09:47:52;;;;;;;;;;;;;;;12.17;52.23;99539.31;4970321;28;19922;-87
2022/04/19 09:50:17;;;;;;;;;;;;;;;12.49;53.54;99542.06;4970629;28;19922;-88
2022/04/19 09:52:48;;;;;;;;;;;;;;;12.25;51.75;99541.78;4970853;28;19924;-87
2022/04/19 09:55:14;;;;;;;;;;;;;;;11.71;52.06;99544.72;4969369;28;19913;-87
2022/04/19 09:57:40;;;;;;;;;;;;;;;11.40;51.81;99538.34;4970972;28;19928;-86
2022/04/19 10:00:10;;;;;;;;;;;;;;;11.52;51.23;99536.34;4970429;28;19918;-86
2022/04/19 10:08:13;;;;;;;;;;;;;;;12.02;50.70;99536.13;4970471;28;19968;-84
2022/04/19 10:10:39;;;;;;;;;;;;;;;11.82;51.55;99529.53;4970043;28;19957;-85
2022/04/19 10:13:05;;;;;;;;;;;;;;;11.67;51.54;99524.59;4970165;28;20684;-85
2022/04/19 10:15:34;;;;;;;;;;;;;;;11.89;52.00;99525.81;4970606;28;19918;-87
2022/04/19 10:17:59;;;;;;;;;;;;;;;11.83;52.38;99524.19;4970382;28;19980;-86
2022/04/19 10:20:32;;;;;;;;;;;;;;;11.62;53.98;99516.75;4964307;28;19918;-87
2022/04/19 10:23:02;;;;;;;;;;;;;;;11.64;53.58;99523.72;4968678;28;20381;-86
2022/04/19 10:25:40;;;;;;;;;;;;;;;11.43;52.05;99522.44;4969005;28;20004;-86
2022/04/19 10:28:06;;;;;;;;;;;;;;;11.03;52.08;99522.34;4969293;28;19924;-86
2022/04/19 10:30:33;;;;;;;;;;;;;;;10.88;51.25;99534.97;4970232;28;20013;-87
2022/04/19 10:32:59;;;;;;;;;;;;;;;11.00;52.29;99531.22;4970119;28;19939;-86
2022/04/19 10:35:24;;;;;;;;;;;;;;;10.98;54.56;99526.88;4970486;28;19978;-85
2022/04/19 10:38:08;;;;;;;;;;;;;;;10.88;54.15;99526.19;4970227;28;20316;-87
2022/04/19 10:40:50;;;;;;;;;;;;;;;10.59;53.58;99517.03;4950032;28;19981;-85
2022/04/19 10:43:15;;;;;;;;;;;;;;;11.38;52.37;99511.09;4950259;28;19918;-87
2022/04/19 10:45:40;;;;;;;;;;;;;;;11.16;53.00;99507.16;4950595;29;19921;-87
2022/04/19 10:48:06;;;;;;;;;;;;;;;11.17;51.92;99509.78;4948927;29;19922;-86
2022/04/19 10:50:39;;;;;;;;;;;;;;;11.35;50.61;99505.00;4950688;28;19925;-87
2022/04/19 10:53:05;;;;;;;;;;;;;;;11.38;46.39;99505.81;4950549;28;20367;-86
2022/04/19 10:55:32;;;;;;;;;;;;;;;11.62;50.66;99511.47;4959963;28;19922;-86
2022/04/19 10:58:09;;;;;;;;;;;;;;;11.40;47.37;99503.13;4968194;28;19924;-86
2022/04/19 11:00:34;;;;;;;;;;;;;;;11.82;49.87;99489.88;4970050;28;19918;-85
2022/04/19 11:03:07;;;;;;;;;;;;;;;11.93;52.18;99495.81;4969776;28;20320;-87
2022/04/19 11:05:41;;;;;;;;;;;;;;;12.05;50.72;99496.41;4970353;28;20373;-86
2022/04/19 11:08:29;;;;;;;;;;;;;;;12.38;49.20;99488.56;4969559;28;19924;-86
2022/04/19 11:10:54;;;;;;;;;;;;;;;12.74;51.84;99489.34;4966341;28;20715;-85
2022/04/19 11:13:20;;;;;;;;;;;;;;;12.68;50.04;99487.75;4972200;28;19925;-86
2022/04/19 11:15:58;;;;;;;;;;;;;;;12.84;47.50;99493.50;4971693;28;19921;-86
2022/04/19 11:18:25;;;;;;;;;;;;;;;12.73;45.90;99490.28;4969492;28;19918;-86
2022/04/19 11:20:52;;;;;;;;;;;;;;;12.72;46.38;99493.81;4976904;28;19916;-84
2022/04/19 11:23:21;;;;;;;;;;;;;;;12.88;48.06;99486.31;4996215;28;19922;-84
2022/04/19 11:25:48;;;;;;;;;;;;;;;12.32;49.66;99482.50;4995960;28;19918;-85
2022/04/19 11:28:25;;;;;;;;;;;;;;;12.38;47.18;99483.28;4991099;28;19977;-85
2022/04/19 11:30:57;;;;;;;;;;;;;;;11.89;48.91;99474.75;4968907;28;19924;-86
2022/04/19 11:33:25;;;;;;;;;;;;;;;11.91;49.01;99479.09;4969504;28;20004;-86
2022/04/19 11:36:00;;;;;;;;;;;;;;;11.64;49.38;99476.16;4969310;28;19944;-85
2022/04/19 11:38:25;;;;;;;;;;;;;;;11.14;51.39;99480.81;4968708;28;19917;-87
2022/04/19 11:49:07;;;;;;;;;;;;;;;10.71;52.06;99494.84;4949400;28;19942;-87
2022/04/19 11:51:35;;;;;;;;;;;;;;;11.16;53.02;99492.19;4952364;28;19914;-87
2022/04/19 11:54:01;;;;;;;;;;;;;;;11.70;51.91;99480.47;4949094;28;19969;-87
2022/04/19 11:56:26;;;;;;;;;;;;;;;12.25;49.47;99480.06;4959540;28;19969;-89
2022/04/19 11:58:52;;;;;;;;;;;;;;;12.23;49.51;99479.22;4968976;28;19965;-89
2022/04/19 12:01:18;;;;;;;;;;;;;;;12.18;49.34;99480.22;4968545;28;19914;-90
2022/04/19 12:03:43;;;;;;;;;;;;;;;12.12;47.77;99485.66;4968897;28;19914;-89
2022/04/19 12:06:09;;;;;;;;;;;;;;;11.82;49.77;99484.59;4968703;28;20297;-89
2022/04/19 12:08:40;;;;;;;;;;;;;;;11.47;48.22;99475.69;4968527;28;19945;-89
2022/04/19 12:11:07;;;;;;;;;;;;;;;12.27;48.41;99479.13;4957117;28;19974;-90
2022/04/19 12:13:33;;;;;;;;;;;;;;;12.67;47.62;99485.16;4949693;28;19924;-88
2022/04/19 12:16:00;;;;;;;;;;;;;;;12.92;45.99;99487.13;4948817;28;19953;-87
2022/04/19 12:18:49;;;;;;;;;;;;;;;13.03;44.84;99475.31;4950674;28;19921;-88
2022/04/19 12:21:14;;;;;;;;;;;;;;;13.29;43.85;99468.41;4968083;28;19917;-88
2022/04/19 12:23:40;;;;;;;;;;;;;;;13.41;43.55;99464.56;4968237;28;19922;-90
2022/04/19 12:26:05;;;;;;;;;;;;;;;13.54;41.89;99457.94;4968752;28;19947;-88
2022/04/19 12:28:56;;;;;;;;;;;;;;;13.25;44.20;99456.13;4967899;28;20009;-89
2022/04/19 12:31:32;;;;;;;;;;;;;;;12.84;44.29;99453.78;4965279;28;19924;-88
2022/04/19 12:33:58;;;;;;;;;;;;;;;12.59;44.37;99452.72;4968286;28;19921;-88
2022/04/19 12:36:25;;;;;;;;;;;;;;;12.52;44.44;99463.47;4967890;28;19968;-88
2022/04/19 12:39:00;;;;;;;;;;;;;;;11.80;45.95;99460.84;4968573;28;19917;-89
2022/04/19 12:41:36;;;;;;;;;;;;;;;11.07;50.26;99484.47;4967308;28;19953;-90
2022/04/19 12:44:03;;;;;;;;;;;;;;;9.58;55.61;99511.59;4975214;28;20294;-88
2022/04/19 12:46:30;;;;;;;;;;;;;;;8.34;61.22;99515.56;4972157;28;20423;-86
2022/04/19 12:48:56;;;;;;;;;;;;;;;8.11;66.87;99515.75;4968766;28;20013;-86
2022/04/19 12:51:25;;;;;;;;;;;;;;;7.37;71.28;99517.94;4968759;28;19922;-87
2022/04/19 12:54:06;;;;;;;;;;;;;;;6.82;74.37;99531.25;4969096;28;19941;-84
2022/04/19 12:56:33;;;;;;;;;;;;;;;6.89;78.48;99521.66;4968071;28;20252;-88
2022/04/19 12:58:58;;;;;;;;;;;;;;;7.78;76.63;99512.47;4968263;28;19969;-85
2022/04/19 13:01:26;;;;;;;;;;;;;;;8.13;77.50;99502.59;4969826;28;20008;-86
2022/04/19 13:03:55;;;;;;;;;;;;;;;8.31;75.76;99499.81;4976721;28;19918;-87
2022/04/19 13:14:32;;;;;;;;;;;;;;;9.34;71.08;99484.66;4952723;29;20000;-86
2022/04/19 13:16:58;;;;;;;;;;;;;;;9.65;66.12;99485.13;4952279;28;19961;-86
2022/04/19 13:19:23;;;;;;;;;;;;;;;9.98;65.67;99488.16;4952631;28;19951;-85
2022/04/19 13:21:48;;;;;;;;;;;;;;;10.02;64.93;99483.69;4952334;29;19918;-85
2022/04/19 13:24:14;;;;;;;;;;;;;;;10.13;60.21;99489.66;4952069;28;20027;-86
2022/04/19 13:26:39;;;;;;;;;;;;;;;10.30;62.27;99493.78;4966650;28;19922;-86
2022/04/19 13:29:05;;;;;;;;;;;;;;;10.23;61.11;99502.69;4970052;28;19935;-85
2022/04/19 13:31:31;;;;;;;;;;;;;;;10.04;62.31;99497.72;4970979;28;19918;-86